sensor_id;sensor_type;location;lat;lon;timestamp;temperature;humidity
30308;DHT22;17114;52.314;8.910;2022-11-27T00:01:52;5.30;99.90
30308;DHT22;17114;52.314;8.910;2022-11-27T00:04:19;5.10;99.90
30308;DHT22;17114;52.314;8.910;2022-11-27T00:06:45;5.10;99.90
30308;DHT22;17114;52.314;8.910;2022-11-27T00:09:13;5.10;99.90
30308;DHT22;17114;52.314;8.910;2022-11-27T00:11:40;5.10;99.90
30308;DHT22;17114;52.314;8.910;2022-11-27T00:14:11;5.10;99.90
30308;DHT22;17114;52.314;8.910;2022-11-27T00:16:38;5.10;99.90
30308;DHT22;17114;52.314;8.910;2022-11-27T00:19:05;5.10;99.90
30308;DHT22;17114;52.314;8.910;2022-11-27T00:21:33;5.10;99.90
30308;DHT22;17114;52.314;8.910;2022-11-27T00:24:00;5.20;99.90
30308;DHT22;17114;52.314;8.910;2022-11-27T00:26:28;5.10;99.90
30308;DHT22;17114;52.314;8.910;2022-11-27T00:29:03;5.10;99.90
30308;DHT22;17114;52.314;8.910;2022-11-27T00:31:30;5.30;99.90
30308;DHT22;17114;52.314;8.910;2022-11-27T00:34:01;5.10;99.90
30308;DHT22;17114;52.314;8.910;2022-11-27T00:36:29;5.10;99.90
30308;DHT22;17114;52.314;8.910;2022-11-27T00:38:56;5.20;99.90
30308;DHT22;17114;52.314;8.910;2022-11-27T00:41:23;5.10;99.90
30308;DHT22;17114;52.314;8.910;2022-11-27T00:43:50;5.10;99.90
30308;DHT22;17114;52.314;8.910;2022-11-27T00:46:19;5.00;99.90
30308;DHT22;17114;52.314;8.910;2022-11-27T00:48:53;5.10;99.90
30308;DHT22;17114;52.314;8.910;2022-11-27T00:51:20;5.10;99.90
30308;DHT22;17114;52.314;8.910;2022-11-27T00:53:47;5.10;99.90
30308;DHT22;17114;52.314;8.910;2022-11-27T00:56:16;5.10;99.90
30308;DHT22;17114;52.314;8.910;2022-11-27T00:58:43;5.10;99.90
30308;DHT22;17114;52.314;8.910;2022-11-27T01:01:17;5.10;99.90
30308;DHT22;17114;52.314;8.910;2022-11-27T01:03:45;5.10;99.90
30308;DHT22;17114;52.314;8.910;2022-11-27T01:06:12;5.10;99.90
30308;DHT22;17114;52.314;8.910;2022-11-27T01:08:40;5.10;99.90
30308;DHT22;17114;52.314;8.910;2022-11-27T01:11:06;5.10;99.90
30308;DHT22;17114;52.314;8.910;2022-11-27T01:13:34;5.00;99.90
30308;DHT22;17114;52.314;8.910;2022-11-27T01:16:05;5.00;99.90
30308;DHT22;17114;52.314;8.910;2022-11-27T01:18:33;5.00;99.90
30308;DHT22;17114;52.314;8.910;2022-11-27T01:20:59;4.90;99.90
30308;DHT22;17114;52.314;8.910;2022-11-27T01:23:26;5.00;99.90
30308;DHT22;17114;52.314;8.910;2022-11-27T01:25:53;5.00;99.90
30308;DHT22;17114;52.314;8.910;2022-11-27T01:28:20;5.00;99.90
30308;DHT22;17114;52.314;8.910;2022-11-27T01:30:47;5.00;99.90
30308;DHT22;17114;52.314;8.910;2022-11-27T01:33:14;5.00;99.90
30308;DHT22;17114;52.314;8.910;2022-11-27T01:35:41;5.00;99.90
30308;DHT22;17114;52.314;8.910;2022-11-27T01:38:08;5.00;99.90
30308;DHT22;17114;52.314;8.910;2022-11-27T01:40:34;5.00;99.90
30308;DHT22;17114;52.314;8.910;2022-11-27T01:43:01;4.90;99.90
30308;DHT22;17114;52.314;8.910;2022-11-27T01:45:28;4.90;99.90
30308;DHT22;17114;52.314;8.910;2022-11-27T01:47:55;4.90;99.90
30308;DHT22;17114;52.314;8.910;2022-11-27T01:50:25;4.90;99.90
30308;DHT22;17114;52.314;8.910;2022-11-27T01:52:53;4.90;99.90
30308;DHT22;17114;52.314;8.910;2022-11-27T01:55:32;4.90;99.90
30308;DHT22;17114;52.314;8.910;2022-11-27T01:58:09;4.90;99.90
30308;DHT22;17114;52.314;8.910;2022-11-27T02:00:36;4.90;99.90
30308;DHT22;17114;52.314;8.910;2022-11-27T02:03:03;4.80;99.90
30308;DHT22;17114;52.314;8.910;2022-11-27T02:05:30;4.80;99.90
30308;DHT22;17114;52.314;8.910;2022-11-27T02:08:01;4.80;99.90
30308;DHT22;17114;52.314;8.910;2022-11-27T02:13:34;4.80;99.90
30308;DHT22;17114;52.314;8.910;2022-11-27T02:19:03;4.80;99.90
30308;DHT22;17114;52.314;8.910;2022-11-27T02:26:51;4.70;99.90
30308;DHT22;17114;52.314;8.910;2022-11-27T02:29:25;4.80;99.90
30308;DHT22;17114;52.314;8.910;2022-11-27T02:31:56;4.70;99.90
30308;DHT22;17114;52.314;8.910;2022-11-27T02:34:24;4.70;99.90
30308;DHT22;17114;52.314;8.910;2022-11-27T02:40:26;4.80;99.90
30308;DHT22;17114;52.314;8.910;2022-11-27T02:42:26;4.80;99.90
30308;DHT22;17114;52.314;8.910;2022-11-27T02:44:56;4.70;99.90
30308;DHT22;17114;52.314;8.910;2022-11-27T02:47:23;4.60;99.90
30308;DHT22;17114;52.314;8.910;2022-11-27T02:49:52;4.80;99.90
30308;DHT22;17114;52.314;8.910;2022-11-27T02:52:23;4.70;99.90
30308;DHT22;17114;52.314;8.910;2022-11-27T02:54:51;4.60;99.90
30308;DHT22;17114;52.314;8.910;2022-11-27T02:57:21;4.70;99.90
30308;DHT22;17114;52.314;8.910;2022-11-27T02:59:49;4.70;99.90
30308;DHT22;17114;52.314;8.910;2022-11-27T03:02:18;4.60;99.90
30308;DHT22;17114;52.314;8.910;2022-11-27T03:04:49;4.60;99.90
30308;DHT22;17114;52.314;8.910;2022-11-27T03:07:18;4.60;99.90
30308;DHT22;17114;52.314;8.910;2022-11-27T03:09:48;4.60;99.90
30308;DHT22;17114;52.314;8.910;2022-11-27T03:12:16;4.50;99.90
30308;DHT22;17114;52.314;8.910;2022-11-27T03:14:43;4.50;99.90
30308;DHT22;17114;52.314;8.910;2022-11-27T03:22:08;4.40;99.90
30308;DHT22;17114;52.314;8.910;2022-11-27T03:24:34;4.40;99.90
30308;DHT22;17114;52.314;8.910;2022-11-27T03:27:02;4.40;99.90
30308;DHT22;17114;52.314;8.910;2022-11-27T03:29:48;4.40;99.90
30308;DHT22;17114;52.314;8.910;2022-11-27T03:32:17;4.40;99.90
30308;DHT22;17114;52.314;8.910;2022-11-27T03:34:43;4.40;99.90
30308;DHT22;17114;52.314;8.910;2022-11-27T03:37:11;4.50;99.90
30308;DHT22;17114;52.314;8.910;2022-11-27T03:39:37;4.40;99.90
30308;DHT22;17114;52.314;8.910;2022-11-27T03:42:13;4.40;99.90
30308;DHT22;17114;52.314;8.910;2022-11-27T03:44:45;4.50;99.90
30308;DHT22;17114;52.314;8.910;2022-11-27T03:52:26;4.50;99.90
30308;DHT22;17114;52.314;8.910;2022-11-27T03:55:42;4.50;99.90
30308;DHT22;17114;52.314;8.910;2022-11-27T04:00:47;4.50;99.90
30308;DHT22;17114;52.314;8.910;2022-11-27T04:03:20;4.50;99.90
30308;DHT22;17114;52.314;8.910;2022-11-27T04:05:48;4.50;99.90
30308;DHT22;17114;52.314;8.910;2022-11-27T04:08:14;4.50;99.90
30308;DHT22;17114;52.314;8.910;2022-11-27T04:10:41;4.50;99.90
30308;DHT22;17114;52.314;8.910;2022-11-27T04:13:08;4.50;99.90
30308;DHT22;17114;52.314;8.910;2022-11-27T04:15:34;4.50;99.90
30308;DHT22;17114;52.314;8.910;2022-11-27T04:18:01;4.50;99.90
30308;DHT22;17114;52.314;8.910;2022-11-27T04:20:28;4.50;99.90
30308;DHT22;17114;52.314;8.910;2022-11-27T04:22:55;4.50;99.90
30308;DHT22;17114;52.314;8.910;2022-11-27T04:25:22;4.60;99.90
30308;DHT22;17114;52.314;8.910;2022-11-27T04:27:48;4.70;99.90
30308;DHT22;17114;52.314;8.910;2022-11-27T04:30:15;4.60;99.90
30308;DHT22;17114;52.314;8.910;2022-11-27T04:32:42;4.60;99.90
30308;DHT22;17114;52.314;8.910;2022-11-27T04:35:09;4.60;99.90
30308;DHT22;17114;52.314;8.910;2022-11-27T04:37:35;4.50;99.90
30308;DHT22;17114;52.314;8.910;2022-11-27T04:40:03;4.50;99.90
30308;DHT22;17114;52.314;8.910;2022-11-27T04:42:29;4.60;99.90
30308;DHT22;17114;52.314;8.910;2022-11-27T04:44:56;4.60;99.90
30308;DHT22;17114;52.314;8.910;2022-11-27T04:47:23;4.50;99.90
30308;DHT22;17114;52.314;8.910;2022-11-27T04:49:49;4.70;99.90
30308;DHT22;17114;52.314;8.910;2022-11-27T04:52:16;4.50;99.90
30308;DHT22;17114;52.314;8.910;2022-11-27T04:54:43;4.70;99.90
30308;DHT22;17114;52.314;8.910;2022-11-27T04:57:09;4.60;99.90
30308;DHT22;17114;52.314;8.910;2022-11-27T04:59:36;4.60;99.90
30308;DHT22;17114;52.314;8.910;2022-11-27T05:02:04;4.60;99.90
30308;DHT22;17114;52.314;8.910;2022-11-27T05:04:30;4.60;99.90
30308;DHT22;17114;52.314;8.910;2022-11-27T05:06:57;4.60;99.90
30308;DHT22;17114;52.314;8.910;2022-11-27T05:09:24;4.50;99.90
30308;DHT22;17114;52.314;8.910;2022-11-27T05:11:51;4.60;99.90
30308;DHT22;17114;52.314;8.910;2022-11-27T05:14:17;4.50;99.90
30308;DHT22;17114;52.314;8.910;2022-11-27T05:16:52;4.50;99.90
30308;DHT22;17114;52.314;8.910;2022-11-27T05:19:20;4.50;99.90
30308;DHT22;17114;52.314;8.910;2022-11-27T05:21:47;4.50;99.90
30308;DHT22;17114;52.314;8.910;2022-11-27T05:24:15;4.50;99.90
30308;DHT22;17114;52.314;8.910;2022-11-27T05:26:42;4.50;99.90
30308;DHT22;17114;52.314;8.910;2022-11-27T05:29:09;4.50;99.90
30308;DHT22;17114;52.314;8.910;2022-11-27T05:31:36;4.40;99.90
30308;DHT22;17114;52.314;8.910;2022-11-27T05:34:03;4.40;99.90
30308;DHT22;17114;52.314;8.910;2022-11-27T05:36:30;4.40;99.90
30308;DHT22;17114;52.314;8.910;2022-11-27T05:38:58;4.40;99.90
30308;DHT22;17114;52.314;8.910;2022-11-27T05:41:25;4.30;99.90
30308;DHT22;17114;52.314;8.910;2022-11-27T05:43:51;4.30;99.90
30308;DHT22;17114;52.314;8.910;2022-11-27T05:46:19;4.40;99.90
30308;DHT22;17114;52.314;8.910;2022-11-27T05:48:47;4.30;99.90
30308;DHT22;17114;52.314;8.910;2022-11-27T05:51:13;4.20;99.90
30308;DHT22;17114;52.314;8.910;2022-11-27T05:53:40;4.20;99.90
30308;DHT22;17114;52.314;8.910;2022-11-27T05:56:08;4.20;99.90
30308;DHT22;17114;52.314;8.910;2022-11-27T05:58:35;4.30;99.90
30308;DHT22;17114;52.314;8.910;2022-11-27T06:01:02;4.30;99.90
30308;DHT22;17114;52.314;8.910;2022-11-27T06:03:29;4.30;99.90
30308;DHT22;17114;52.314;8.910;2022-11-27T06:05:56;4.30;99.90
30308;DHT22;17114;52.314;8.910;2022-11-27T06:08:22;4.30;99.90
30308;DHT22;17114;52.314;8.910;2022-11-27T06:10:49;4.30;99.90
30308;DHT22;17114;52.314;8.910;2022-11-27T06:13:16;4.30;99.90
30308;DHT22;17114;52.314;8.910;2022-11-27T06:15:42;4.30;99.90
30308;DHT22;17114;52.314;8.910;2022-11-27T06:18:09;4.40;99.90
30308;DHT22;17114;52.314;8.910;2022-11-27T06:20:36;4.30;99.90
30308;DHT22;17114;52.314;8.910;2022-11-27T06:23:09;4.30;99.90
30308;DHT22;17114;52.314;8.910;2022-11-27T06:25:36;4.30;99.90
30308;DHT22;17114;52.314;8.910;2022-11-27T06:28:02;4.30;99.90
30308;DHT22;17114;52.314;8.910;2022-11-27T06:30:29;4.30;99.90
30308;DHT22;17114;52.314;8.910;2022-11-27T06:32:56;4.30;99.90
30308;DHT22;17114;52.314;8.910;2022-11-27T06:35:23;4.30;99.90
30308;DHT22;17114;52.314;8.910;2022-11-27T06:37:49;4.30;99.90
30308;DHT22;17114;52.314;8.910;2022-11-27T06:40:16;4.40;99.90
30308;DHT22;17114;52.314;8.910;2022-11-27T06:42:43;4.30;99.90
30308;DHT22;17114;52.314;8.910;2022-11-27T06:45:10;4.40;99.90
30308;DHT22;17114;52.314;8.910;2022-11-27T06:47:36;4.40;99.90
30308;DHT22;17114;52.314;8.910;2022-11-27T06:50:03;4.40;99.90
30308;DHT22;17114;52.314;8.910;2022-11-27T06:52:30;4.40;99.90
30308;DHT22;17114;52.314;8.910;2022-11-27T06:55:04;4.40;99.90
30308;DHT22;17114;52.314;8.910;2022-11-27T06:57:30;4.40;99.90
30308;DHT22;17114;52.314;8.910;2022-11-27T06:59:57;4.40;99.90
30308;DHT22;17114;52.314;8.910;2022-11-27T07:02:24;4.40;99.90
30308;DHT22;17114;52.314;8.910;2022-11-27T07:04:50;4.40;99.90
30308;DHT22;17114;52.314;8.910;2022-11-27T07:07:17;4.40;99.90
30308;DHT22;17114;52.314;8.910;2022-11-27T07:09:44;4.50;99.90
30308;DHT22;17114;52.314;8.910;2022-11-27T07:12:11;4.30;99.90
30308;DHT22;17114;52.314;8.910;2022-11-27T07:14:37;4.30;99.90
30308;DHT22;17114;52.314;8.910;2022-11-27T07:17:04;4.40;99.90
30308;DHT22;17114;52.314;8.910;2022-11-27T07:19:31;4.30;99.90
30308;DHT22;17114;52.314;8.910;2022-11-27T07:21:58;4.30;99.90
30308;DHT22;17114;52.314;8.910;2022-11-27T07:24:24;4.30;99.90
30308;DHT22;17114;52.314;8.910;2022-11-27T07:26:51;4.30;99.90
30308;DHT22;17114;52.314;8.910;2022-11-27T07:29:18;4.50;99.90
30308;DHT22;17114;52.314;8.910;2022-11-27T07:31:44;4.50;99.90
30308;DHT22;17114;52.314;8.910;2022-11-27T07:34:11;4.40;99.90
30308;DHT22;17114;52.314;8.910;2022-11-27T07:36:46;4.40;99.90
30308;DHT22;17114;52.314;8.910;2022-11-27T07:39:13;4.50;99.90
30308;DHT22;17114;52.314;8.910;2022-11-27T07:41:39;4.50;99.90
30308;DHT22;17114;52.314;8.910;2022-11-27T07:44:07;4.60;99.90
30308;DHT22;17114;52.314;8.910;2022-11-27T07:46:34;4.70;99.90
30308;DHT22;17114;52.314;8.910;2022-11-27T07:49:01;4.80;99.90
30308;DHT22;17114;52.314;8.910;2022-11-27T07:51:29;4.80;99.90
30308;DHT22;17114;52.314;8.910;2022-11-27T07:53:58;4.90;99.90
30308;DHT22;17114;52.314;8.910;2022-11-27T07:56:24;4.90;99.90
30308;DHT22;17114;52.314;8.910;2022-11-27T07:58:52;5.00;99.90
30308;DHT22;17114;52.314;8.910;2022-11-27T08:01:19;5.00;99.90
30308;DHT22;17114;52.314;8.910;2022-11-27T08:03:47;5.10;99.90
30308;DHT22;17114;52.314;8.910;2022-11-27T08:06:21;5.10;99.90
30308;DHT22;17114;52.314;8.910;2022-11-27T08:08:48;5.10;99.90
30308;DHT22;17114;52.314;8.910;2022-11-27T08:11:16;5.30;99.90
30308;DHT22;17114;52.314;8.910;2022-11-27T08:13:43;5.10;99.90
30308;DHT22;17114;52.314;8.910;2022-11-27T08:16:09;5.10;99.90
30308;DHT22;17114;52.314;8.910;2022-11-27T08:18:36;5.10;99.90
30308;DHT22;17114;52.314;8.910;2022-11-27T08:21:03;5.00;99.90
30308;DHT22;17114;52.314;8.910;2022-11-27T08:23:29;5.10;99.90
30308;DHT22;17114;52.314;8.910;2022-11-27T08:25:56;5.10;99.90
30308;DHT22;17114;52.314;8.910;2022-11-27T08:28:23;5.20;99.90
30308;DHT22;17114;52.314;8.910;2022-11-27T08:30:57;5.10;99.90
30308;DHT22;17114;52.314;8.910;2022-11-27T08:33:23;5.20;99.90
30308;DHT22;17114;52.314;8.910;2022-11-27T08:35:50;5.20;99.90
30308;DHT22;17114;52.314;8.910;2022-11-27T08:38:17;5.30;99.90
30308;DHT22;17114;52.314;8.910;2022-11-27T08:40:44;5.30;99.90
30308;DHT22;17114;52.314;8.910;2022-11-27T08:43:11;5.40;99.90
30308;DHT22;17114;52.314;8.910;2022-11-27T08:45:38;5.50;99.90
30308;DHT22;17114;52.314;8.910;2022-11-27T08:48:05;5.70;99.90
30308;DHT22;17114;52.314;8.910;2022-11-27T08:50:31;5.80;99.90
30308;DHT22;17114;52.314;8.910;2022-11-27T08:52:58;6.00;99.90
30308;DHT22;17114;52.314;8.910;2022-11-27T08:55:25;6.20;99.90
30308;DHT22;17114;52.314;8.910;2022-11-27T08:57:51;6.40;99.90
30308;DHT22;17114;52.314;8.910;2022-11-27T09:00:18;6.60;99.90
30308;DHT22;17114;52.314;8.910;2022-11-27T09:02:53;6.80;99.90
30308;DHT22;17114;52.314;8.910;2022-11-27T09:05:19;6.90;99.90
30308;DHT22;17114;52.314;8.910;2022-11-27T09:07:46;7.00;99.90
30308;DHT22;17114;52.314;8.910;2022-11-27T09:10:13;7.10;99.90
30308;DHT22;17114;52.314;8.910;2022-11-27T09:12:39;7.10;99.90
30308;DHT22;17114;52.314;8.910;2022-11-27T09:15:09;7.20;99.90
30308;DHT22;17114;52.314;8.910;2022-11-27T09:17:36;7.30;99.90
30308;DHT22;17114;52.314;8.910;2022-11-27T09:20:04;7.50;99.90
30308;DHT22;17114;52.314;8.910;2022-11-27T09:22:32;7.70;99.90
30308;DHT22;17114;52.314;8.910;2022-11-27T09:24:58;7.80;99.90
30308;DHT22;17114;52.314;8.910;2022-11-27T09:27:25;8.00;99.90
30308;DHT22;17114;52.314;8.910;2022-11-27T09:29:52;7.90;99.90
30308;DHT22;17114;52.314;8.910;2022-11-27T09:32:20;7.80;99.90
30308;DHT22;17114;52.314;8.910;2022-11-27T09:34:47;7.70;99.90
30308;DHT22;17114;52.314;8.910;2022-11-27T09:37:14;7.60;99.90
30308;DHT22;17114;52.314;8.910;2022-11-27T09:39:40;7.50;99.90
30308;DHT22;17114;52.314;8.910;2022-11-27T09:42:11;7.40;99.90
30308;DHT22;17114;52.314;8.910;2022-11-27T09:44:48;7.30;99.90
30308;DHT22;17114;52.314;8.910;2022-11-27T09:50:12;7.20;99.90
30308;DHT22;17114;52.314;8.910;2022-11-27T09:52:50;7.20;99.90
30308;DHT22;17114;52.314;8.910;2022-11-27T09:55:37;7.20;99.90
30308;DHT22;17114;52.314;8.910;2022-11-27T10:00:36;7.20;99.90
30308;DHT22;17114;52.314;8.910;2022-11-27T10:03:06;7.20;99.90
30308;DHT22;17114;52.314;8.910;2022-11-27T10:15:55;7.20;99.90
30308;DHT22;17114;52.314;8.910;2022-11-27T10:21:44;7.20;99.90
30308;DHT22;17114;52.314;8.910;2022-11-27T10:26:30;7.30;99.90
30308;DHT22;17114;52.314;8.910;2022-11-27T10:29:04;7.30;99.90
30308;DHT22;17114;52.314;8.910;2022-11-27T10:31:54;7.30;99.90
30308;DHT22;17114;52.314;8.910;2022-11-27T10:34:36;7.40;99.90
30308;DHT22;17114;52.314;8.910;2022-11-27T10:37:05;7.40;99.90
30308;DHT22;17114;52.314;8.910;2022-11-27T10:39:37;7.50;99.90
30308;DHT22;17114;52.314;8.910;2022-11-27T10:42:18;7.50;99.90
30308;DHT22;17114;52.314;8.910;2022-11-27T10:47:16;7.60;99.90
30308;DHT22;17114;52.314;8.910;2022-11-27T10:49:43;7.70;99.90
30308;DHT22;17114;52.314;8.910;2022-11-27T10:52:13;7.70;99.90
30308;DHT22;17114;52.314;8.910;2022-11-27T10:54:40;7.80;99.90
30308;DHT22;17114;52.314;8.910;2022-11-27T10:57:23;7.80;99.90
30308;DHT22;17114;52.314;8.910;2022-11-27T11:00:02;7.90;99.90
30308;DHT22;17114;52.314;8.910;2022-11-27T11:02:36;7.90;99.90
30308;DHT22;17114;52.314;8.910;2022-11-27T11:05:23;7.90;99.90
30308;DHT22;17114;52.314;8.910;2022-11-27T11:08:17;7.90;99.90
30308;DHT22;17114;52.314;8.910;2022-11-27T11:11:04;8.00;99.90
30308;DHT22;17114;52.314;8.910;2022-11-27T11:18:41;8.10;99.90
30308;DHT22;17114;52.314;8.910;2022-11-27T11:21:12;8.20;99.90
30308;DHT22;17114;52.314;8.910;2022-11-27T11:23:40;8.20;99.90
30308;DHT22;17114;52.314;8.910;2022-11-27T11:28:54;8.30;99.90
30308;DHT22;17114;52.314;8.910;2022-11-27T11:31:22;8.40;99.90
30308;DHT22;17114;52.314;8.910;2022-11-27T11:33:55;8.50;99.90
30308;DHT22;17114;52.314;8.910;2022-11-27T11:36:23;8.50;99.90
30308;DHT22;17114;52.314;8.910;2022-11-27T11:38:50;8.50;99.90
30308;DHT22;17114;52.314;8.910;2022-11-27T11:41:17;8.50;99.90
30308;DHT22;17114;52.314;8.910;2022-11-27T11:46:22;8.40;99.90
30308;DHT22;17114;52.314;8.910;2022-11-27T11:49:14;8.50;99.90
30308;DHT22;17114;52.314;8.910;2022-11-27T11:56:42;8.50;99.90
30308;DHT22;17114;52.314;8.910;2022-11-27T11:59:15;8.50;99.90
30308;DHT22;17114;52.314;8.910;2022-11-27T12:14:58;8.60;99.90
30308;DHT22;17114;52.314;8.910;2022-11-27T12:20:16;8.70;99.90
30308;DHT22;17114;52.314;8.910;2022-11-27T12:30:48;8.80;99.90
30308;DHT22;17114;52.314;8.910;2022-11-27T12:33:25;8.80;99.90
30308;DHT22;17114;52.314;8.910;2022-11-27T12:43:55;8.90;99.90
30308;DHT22;17114;52.314;8.910;2022-11-27T12:46:32;8.90;99.90
30308;DHT22;17114;52.314;8.910;2022-11-27T12:49:11;8.90;99.90
30308;DHT22;17114;52.314;8.910;2022-11-27T12:57:07;8.90;99.90
30308;DHT22;17114;52.314;8.910;2022-11-27T12:59:38;8.90;99.90
30308;DHT22;17114;52.314;8.910;2022-11-27T13:02:24;8.90;99.90
30308;DHT22;17114;52.314;8.910;2022-11-27T13:04:57;8.90;99.90
30308;DHT22;17114;52.314;8.910;2022-11-27T13:07:27;8.90;99.90
30308;DHT22;17114;52.314;8.910;2022-11-27T13:09:57;9.00;99.90
30308;DHT22;17114;52.314;8.910;2022-11-27T13:12:28;9.00;99.90
30308;DHT22;17114;52.314;8.910;2022-11-27T13:14:57;9.00;99.90
30308;DHT22;17114;52.314;8.910;2022-11-27T13:17:28;9.00;99.90
30308;DHT22;17114;52.314;8.910;2022-11-27T13:19:57;9.00;99.90
30308;DHT22;17114;52.314;8.910;2022-11-27T13:22:27;9.00;99.90
30308;DHT22;17114;52.314;8.910;2022-11-27T13:24:58;9.00;99.90
30308;DHT22;17114;52.314;8.910;2022-11-27T13:27:26;8.90;99.90
30308;DHT22;17114;52.314;8.910;2022-11-27T13:29:54;8.90;99.90
30308;DHT22;17114;52.314;8.910;2022-11-27T13:32:23;8.90;99.90
30308;DHT22;17114;52.314;8.910;2022-11-27T13:34:51;8.90;99.90
30308;DHT22;17114;52.314;8.910;2022-11-27T13:39:48;8.90;99.90
30308;DHT22;17114;52.314;8.910;2022-11-27T13:42:19;8.90;99.90
30308;DHT22;17114;52.314;8.910;2022-11-27T13:44:57;9.00;99.90
30308;DHT22;17114;52.314;8.910;2022-11-27T13:47:25;9.00;99.90
30308;DHT22;17114;52.314;8.910;2022-11-27T13:50:01;9.00;99.90
30308;DHT22;17114;52.314;8.910;2022-11-27T13:52:28;9.00;99.90
30308;DHT22;17114;52.314;8.910;2022-11-27T13:54:56;9.00;99.90
30308;DHT22;17114;52.314;8.910;2022-11-27T13:57:23;9.00;99.90
30308;DHT22;17114;52.314;8.910;2022-11-27T13:59:55;9.00;99.90
30308;DHT22;17114;52.314;8.910;2022-11-27T14:02:23;9.00;99.90
30308;DHT22;17114;52.314;8.910;2022-11-27T14:04:50;9.00;99.90
30308;DHT22;17114;52.314;8.910;2022-11-27T14:07:22;9.00;99.90
30308;DHT22;17114;52.314;8.910;2022-11-27T14:09:53;8.90;99.90
30308;DHT22;17114;52.314;8.910;2022-11-27T14:12:26;8.90;99.90
30308;DHT22;17114;52.314;8.910;2022-11-27T14:20:55;8.90;99.90
30308;DHT22;17114;52.314;8.910;2022-11-27T14:23:34;8.90;99.90
30308;DHT22;17114;52.314;8.910;2022-11-27T14:26:06;8.80;99.90
30308;DHT22;17114;52.314;8.910;2022-11-27T14:28:42;8.80;99.90
30308;DHT22;17114;52.314;8.910;2022-11-27T14:31:28;8.90;99.90
30308;DHT22;17114;52.314;8.910;2022-11-27T14:33:56;8.80;99.90
30308;DHT22;17114;52.314;8.910;2022-11-27T14:36:43;8.80;99.90
30308;DHT22;17114;52.314;8.910;2022-11-27T14:39:30;8.80;99.90
30308;DHT22;17114;52.314;8.910;2022-11-27T14:44:28;8.80;99.90
30308;DHT22;17114;52.314;8.910;2022-11-27T14:46:58;8.70;99.90
30308;DHT22;17114;52.314;8.910;2022-11-27T14:49:27;8.90;99.90
30308;DHT22;17114;52.314;8.910;2022-11-27T14:52:01;8.80;99.90
30308;DHT22;17114;52.314;8.910;2022-11-27T14:54:36;8.70;99.90
30308;DHT22;17114;52.314;8.910;2022-11-27T14:57:04;8.60;99.90
30308;DHT22;17114;52.314;8.910;2022-11-27T14:59:32;8.60;99.90
30308;DHT22;17114;52.314;8.910;2022-11-27T15:02:18;8.80;99.90
30308;DHT22;17114;52.314;8.910;2022-11-27T15:05:01;8.60;99.90
30308;DHT22;17114;52.314;8.910;2022-11-27T15:07:29;8.60;99.90
30308;DHT22;17114;52.314;8.910;2022-11-27T15:09:58;8.60;99.90
30308;DHT22;17114;52.314;8.910;2022-11-27T15:12:33;8.60;99.90
30308;DHT22;17114;52.314;8.910;2022-11-27T15:17:42;8.60;99.90
30308;DHT22;17114;52.314;8.910;2022-11-27T15:20:19;8.60;99.90
30308;DHT22;17114;52.314;8.910;2022-11-27T15:22:49;8.50;99.90
30308;DHT22;17114;52.314;8.910;2022-11-27T15:25:39;8.50;99.90
30308;DHT22;17114;52.314;8.910;2022-11-27T15:31:01;8.50;99.90
30308;DHT22;17114;52.314;8.910;2022-11-27T15:33:32;8.50;99.90
30308;DHT22;17114;52.314;8.910;2022-11-27T15:38:43;8.50;99.90
30308;DHT22;17114;52.314;8.910;2022-11-27T15:41:27;8.60;99.90
30308;DHT22;17114;52.314;8.910;2022-11-27T15:43:54;8.50;99.90
30308;DHT22;17114;52.314;8.910;2022-11-27T15:46:27;8.50;99.90
30308;DHT22;17114;52.314;8.910;2022-11-27T15:48:56;8.50;99.90
30308;DHT22;17114;52.314;8.910;2022-11-27T15:51:23;8.50;99.90
30308;DHT22;17114;52.314;8.910;2022-11-27T15:53:50;8.50;99.90
30308;DHT22;17114;52.314;8.910;2022-11-27T15:56:17;8.50;99.90
30308;DHT22;17114;52.314;8.910;2022-11-27T15:58:44;8.50;99.90
30308;DHT22;17114;52.314;8.910;2022-11-27T16:01:11;8.50;99.90
30308;DHT22;17114;52.314;8.910;2022-11-27T16:03:38;8.50;99.90
30308;DHT22;17114;52.314;8.910;2022-11-27T16:06:07;8.50;99.90
30308;DHT22;17114;52.314;8.910;2022-11-27T16:08:35;8.40;99.90
30308;DHT22;17114;52.314;8.910;2022-11-27T16:11:04;8.40;99.90
30308;DHT22;17114;52.314;8.910;2022-11-27T16:13:32;8.40;99.90
30308;DHT22;17114;52.314;8.910;2022-11-27T16:16:07;8.40;99.90
30308;DHT22;17114;52.314;8.910;2022-11-27T16:18:34;8.40;99.90
30308;DHT22;17114;52.314;8.910;2022-11-27T16:21:15;8.40;99.90
30308;DHT22;17114;52.314;8.910;2022-11-27T16:23:42;8.40;99.90
30308;DHT22;17114;52.314;8.910;2022-11-27T16:26:12;8.30;99.90
30308;DHT22;17114;52.314;8.910;2022-11-27T16:28:40;8.30;99.90
30308;DHT22;17114;52.314;8.910;2022-11-27T16:31:10;8.30;99.90
30308;DHT22;17114;52.314;8.910;2022-11-27T16:33:41;8.30;99.90
30308;DHT22;17114;52.314;8.910;2022-11-27T16:36:15;8.30;99.90
30308;DHT22;17114;52.314;8.910;2022-11-27T16:38:43;8.30;99.90
30308;DHT22;17114;52.314;8.910;2022-11-27T16:41:13;8.30;99.90
30308;DHT22;17114;52.314;8.910;2022-11-27T16:43:42;8.30;99.90
30308;DHT22;17114;52.314;8.910;2022-11-27T16:46:20;8.40;99.90
30308;DHT22;17114;52.314;8.910;2022-11-27T16:48:48;8.30;99.90
30308;DHT22;17114;52.314;8.910;2022-11-27T16:51:21;8.30;99.90
30308;DHT22;17114;52.314;8.910;2022-11-27T16:53:51;8.30;99.90
30308;DHT22;17114;52.314;8.910;2022-11-27T16:56:21;8.30;99.90
30308;DHT22;17114;52.314;8.910;2022-11-27T16:58:50;8.30;99.90
30308;DHT22;17114;52.314;8.910;2022-11-27T17:01:23;8.20;99.90
30308;DHT22;17114;52.314;8.910;2022-11-27T17:03:50;8.30;99.90
30308;DHT22;17114;52.314;8.910;2022-11-27T17:06:23;8.20;99.90
30308;DHT22;17114;52.314;8.910;2022-11-27T17:08:53;8.20;99.90
30308;DHT22;17114;52.314;8.910;2022-11-27T17:11:23;8.30;99.90
30308;DHT22;17114;52.314;8.910;2022-11-27T17:13:56;8.30;99.90
30308;DHT22;17114;52.314;8.910;2022-11-27T17:16:23;8.30;99.90
30308;DHT22;17114;52.314;8.910;2022-11-27T17:18:50;8.30;99.90
30308;DHT22;17114;52.314;8.910;2022-11-27T17:21:21;8.20;99.90
30308;DHT22;17114;52.314;8.910;2022-11-27T17:23:50;8.30;99.90
30308;DHT22;17114;52.314;8.910;2022-11-27T17:26:20;8.30;99.90
30308;DHT22;17114;52.314;8.910;2022-11-27T17:28:48;8.20;99.90
30308;DHT22;17114;52.314;8.910;2022-11-27T17:31:19;8.40;99.90
30308;DHT22;17114;52.314;8.910;2022-11-27T17:33:47;8.30;99.90
30308;DHT22;17114;52.314;8.910;2022-11-27T17:36:15;8.30;99.90
30308;DHT22;17114;52.314;8.910;2022-11-27T17:38:41;8.30;99.90
30308;DHT22;17114;52.314;8.910;2022-11-27T17:41:11;8.30;99.90
30308;DHT22;17114;52.314;8.910;2022-11-27T17:43:38;8.30;99.90
30308;DHT22;17114;52.314;8.910;2022-11-27T17:46:07;8.30;99.90
30308;DHT22;17114;52.314;8.910;2022-11-27T17:48:34;8.30;99.90
30308;DHT22;17114;52.314;8.910;2022-11-27T17:51:02;8.30;99.90
30308;DHT22;17114;52.314;8.910;2022-11-27T17:53:30;8.30;99.90
30308;DHT22;17114;52.314;8.910;2022-11-27T17:56:05;8.30;99.90
30308;DHT22;17114;52.314;8.910;2022-11-27T17:58:33;8.30;99.90
30308;DHT22;17114;52.314;8.910;2022-11-27T18:01:04;8.30;99.90
30308;DHT22;17114;52.314;8.910;2022-11-27T18:03:32;8.30;99.90